Aviation Digital Data Service (ADDS)

Output produced by METARs form (1703 UTC 13 February 2016)
found at http://www.aviationweather.gov/adds/metars/
 
METAR text: KCMI 131653Z 33007KT 10SM CLR M11/M20 A3062 RMK AO2 SLP385 T11061200
Conditions at: KCMI (CHAMPAIGN/URBANA, IL, US) observed 1653 UTC 13 February 2016
Temperature: -10.6°C (13°F)
Dewpoint: -20.0°C (-4°F) [RH = 46%]
Pressure (altimeter): 30.62 inches Hg (1037.0 mb)
[Sea-level pressure: 1038.5 mb]
Winds: from the NNW (330 degrees) at 8 MPH (7 knots; 3.6 m/s)
Visibility: 10 or more miles (16+ km)
Ceiling: at least 12,000 feet AGL
Clouds: sky clear below 12,000 feet AGL
Weather: no significant weather observed at this time

METAR text: KCMI 131553Z 33010KT 10SM CLR M11/M20 A3062 RMK AO2 SLP383 T11111200
Conditions at: KCMI (CHAMPAIGN/URBANA, IL, US) observed 1553 UTC 13 February 2016
Temperature: -11.1°C (12°F)
Dewpoint: -20.0°C (-4°F) [RH = 48%]
Pressure (altimeter): 30.62 inches Hg (1037.0 mb)
[Sea-level pressure: 1038.3 mb]
Winds: from the NNW (330 degrees) at 12 MPH (10 knots; 5.2 m/s)
Visibility: 10 or more miles (16+ km)
Ceiling: at least 12,000 feet AGL
Clouds: sky clear below 12,000 feet AGL
Weather: no significant weather observed at this time

Forecast for: KCMI (CHAMPAIGN/URBANA, IL, US)
Text: KCMI 131138Z 1312/1412 34012KT P6SM SKC
Forecast period: 1200 UTC 13 February 2016 to 0200 UTC 14 February 2016
Forecast type: FROM: standard forecast or significant change
Winds: from the NNW (340 degrees) at 14 MPH (12 knots; 6.2 m/s)
Visibility: 6 or more miles (10+ km)
Clouds: clear skies
Weather: no significant weather forecast for this period
Text: FM140200 08005KT P6SM BKN250
Forecast period: 0200 to 0900 UTC 14 February 2016
Forecast type: FROM: standard forecast or significant change
Winds: from the E (80 degrees) at 6 MPH (5 knots; 2.6 m/s)
Visibility: 6 or more miles (10+ km)
Ceiling: 25000 feet AGL
Clouds: broken clouds at 25000 feet AGL
Weather: no significant weather forecast for this period
Text: FM140900 10005KT 3SM -SN OVC035
Forecast period: 0900 to 1200 UTC 14 February 2016
Forecast type: FROM: standard forecast or significant change
Winds: from the E (100 degrees) at 6 MPH (5 knots; 2.6 m/s)
Visibility: 3 miles (5 km)
Ceiling: 3500 feet AGL
Clouds: overcast cloud deck at 3500 feet AGL
Weather: -SN  (light snow)